Archival Weather

Chicago O'Hare International

Chicago, Illinois (KORD)

Report from: Friday, March 30, 2012 1:51 PM CDT
Current time: Friday, June 21, 2024 8:09 PM CDT

Current weather – Weather history – Daily summaries
Weather forecast

Temperature10.0°C (50.0°F)
Wind chill8.2°C (46.7°F)
Dew point5.6°C (42.1°F)
Winds 7 kts (3.6 m/s, 8.1 mph) North (10°)
Visibility8 mi. (12.9 km)
Clouds Ceiling: Overcast 1,300 ft. (396 m)
Altimeter29.76 in.Hg (1008 mB)
Relative humidity74 %
Density altitude-283 ft. (-86 m)
Sea-level pressure100.8 kPa (1008 mB, 29.76 in.Hg)
Remarks Automated weather observing station with precipitation discriminator
Flight conditions Marginal Visual Meteorological Conditions
Raw data2012-03-30 18:51 KORD 301851Z 01007KT 8SM OVC013 10/06 A2976 RMK AO2 SLP079 T01000056
An error has occurred. This application may no longer respond until reloaded. Reload 🗙